Boscawen, New Hampshire
Current Conditions -  °F | °C
As of 1:51 PM on Tuesday 21 Oct 2014 (Local Time) from KCON Reporting Station
Overcast Overcast  
Wind Chill: 53°   Ceiling: 1000
Heat Index: 53°   Visibility: 10mi
Dew Point: 50°   Wind: 6mph
Humidity: 89%   Direction: 10°N
Pressure: 29.95"   Gusts: NA
Location:  43.3208°N, 71.6638°W
Report Text: KCON 211751Z AUTO 01005KT 10SM OVC010 12/10 A2995 RMK AO2 RAE24 CIG 008V013 SLP144 P0001 60003 T01170100 10117 20061 58012
Loading
Personal Weather Stations






























Interactive Weather Map
Tropical Storm Tracking
New forecast layout! Learn more

10-Day Weather Forecast

Advertisements
Track Severe Weather on mobile